Time;durP1;ratioP1;P1;durP2;ratioP2;P2;SDS_P1;SDS_P2;PMS_P1;PMS_P2;Temp;Humidity;BMP_temperature;BMP_pressure;BME280_temperature;BME280_humidity;BME280_pressure;Samples;Min_cycle;Max_cycle;Signal;HPM_P1;HPM_P2
2022/04/23 00:01:24;;;;;;;;;;;;;;;10.55;58.56;100395.81;5065564;28;20007;-81
2022/04/23 00:03:49;;;;;;;;;;;;;;;10.53;58.45;100399.38;5066373;28;20477;-81
2022/04/23 00:06:14;;;;;;;;;;;;;;;10.51;58.38;100394.22;5066885;28;19913;-81
2022/04/23 00:08:39;;;;;;;;;;;;;;;10.48;58.84;100397.78;5062548;28;19913;-81
2022/04/23 00:11:04;;;;;;;;;;;;;;;10.47;58.42;100406.47;5069399;28;20204;-81
2022/04/23 00:13:30;;;;;;;;;;;;;;;10.45;59.17;100392.66;5065472;28;20279;-81
2022/04/23 00:15:55;;;;;;;;;;;;;;;10.39;58.94;100390.28;5066029;28;20298;-81
2022/04/23 00:18:20;;;;;;;;;;;;;;;10.39;58.67;100392.03;5068066;28;19922;-81
2022/04/23 00:20:48;;;;;;;;;;;;;;;10.37;59.03;100401.59;5064109;28;19916;-81
2022/04/23 00:23:14;;;;;;;;;;;;;;;10.33;58.96;100393.88;5065717;28;19935;-81
2022/04/23 00:25:39;;;;;;;;;;;;;;;10.30;59.74;100395.72;5060777;28;19912;-81
2022/04/23 00:28:05;;;;;;;;;;;;;;;10.29;59.80;100392.28;5064653;28;19912;-81
2022/04/23 00:30:30;;;;;;;;;;;;;;;10.29;59.76;100399.22;5070665;28;19920;-81
2022/04/23 00:33:00;;;;;;;;;;;;;;;10.27;59.36;100394.09;5063489;28;19912;-81
2022/04/23 00:35:25;;;;;;;;;;;;;;;10.25;59.71;100387.22;5066990;28;20589;-81
2022/04/23 00:37:50;;;;;;;;;;;;;;;10.23;59.86;100394.25;5066544;28;20394;-81
2022/04/23 00:40:18;;;;;;;;;;;;;;;10.21;60.47;100393.44;5064420;28;19912;-81
2022/04/23 00:42:44;;;;;;;;;;;;;;;10.17;60.29;100392.66;5066056;28;20244;-81
2022/04/23 00:45:09;;;;;;;;;;;;;;;10.16;60.41;100393.59;5062760;28;19982;-81
2022/04/23 00:47:35;;;;;;;;;;;;;;;10.15;59.81;100394.50;5063649;28;20342;-81
2022/04/23 00:50:00;;;;;;;;;;;;;;;10.13;60.12;100394.50;5065557;28;19916;-81
2022/04/23 00:52:25;;;;;;;;;;;;;;;10.12;60.30;100395.41;5066920;28;19928;-81
2022/04/23 00:54:50;;;;;;;;;;;;;;;10.12;60.39;100403.22;5064542;28;19921;-81
2022/04/23 00:57:16;;;;;;;;;;;;;;;10.11;60.71;100398.91;5050335;28;19913;-81
2022/04/23 00:59:41;;;;;;;;;;;;;;;10.08;60.56;100398.16;5065789;28;20267;-81
2022/04/23 01:02:07;;;;;;;;;;;;;;;10.06;60.54;100400.81;5054926;28;20275;-81
2022/04/23 01:04:33;;;;;;;;;;;;;;;10.03;60.21;100395.72;5058605;28;19923;-81
2022/04/23 01:06:59;;;;;;;;;;;;;;;10.01;60.79;100400.09;5062766;28;19928;-81
2022/04/23 01:09:24;;;;;;;;;;;;;;;10.00;60.78;100395.78;5062102;28;20366;-81
2022/04/23 01:11:51;;;;;;;;;;;;;;;9.98;60.65;100401.06;5065377;28;20413;-81
2022/04/23 01:14:18;;;;;;;;;;;;;;;9.96;61.09;100399.38;5062315;28;19912;-81
2022/04/23 01:16:43;;;;;;;;;;;;;;;9.95;61.36;100398.53;5045927;28;20367;-81
2022/04/23 01:19:08;;;;;;;;;;;;;;;9.95;61.65;100405.47;5064081;28;19927;-81
2022/04/23 01:21:33;;;;;;;;;;;;;;;9.93;62.06;100397.72;5069149;28;20355;-81
2022/04/23 01:23:59;;;;;;;;;;;;;;;9.91;61.99;100396.94;5063579;28;20080;-81
2022/04/23 01:26:26;;;;;;;;;;;;;;;9.92;61.70;100408.16;5066750;28;19913;-81
2022/04/23 01:28:52;;;;;;;;;;;;;;;9.91;62.32;100401.25;5065609;28;19919;-81
2022/04/23 01:31:17;;;;;;;;;;;;;;;9.87;62.85;100401.38;5064963;28;19913;-80
2022/04/23 01:33:42;;;;;;;;;;;;;;;9.90;61.98;100402.19;5062047;28;20002;-81
2022/04/23 01:36:07;;;;;;;;;;;;;;;9.85;62.58;100405.75;5065645;28;19921;-81
2022/04/23 01:38:32;;;;;;;;;;;;;;;9.82;62.43;100403.25;5066020;28;22251;-81
2022/04/23 01:40:58;;;;;;;;;;;;;;;9.81;62.40;100413.69;5066248;28;19943;-81
2022/04/23 01:43:23;;;;;;;;;;;;;;;9.80;62.08;100406.81;5063917;28;19924;-81
2022/04/23 01:45:48;;;;;;;;;;;;;;;9.77;62.90;100405.13;5063779;28;19920;-80
2022/04/23 01:48:13;;;;;;;;;;;;;;;9.75;62.37;100406.91;5065829;28;19936;-81
2022/04/23 01:50:38;;;;;;;;;;;;;;;9.73;62.88;100403.53;5064228;28;19947;-81
2022/04/23 01:53:04;;;;;;;;;;;;;;;9.72;62.99;100413.06;5061391;28;19916;-81
2022/04/23 01:55:29;;;;;;;;;;;;;;;9.71;63.13;100406.16;5064659;28;19912;-81
2022/04/23 01:57:54;;;;;;;;;;;;;;;9.70;63.99;100409.66;5062812;28;19974;-80
2022/04/23 02:00:20;;;;;;;;;;;;;;;9.68;63.25;100405.41;5063240;28;20017;-81
2022/04/23 02:02:46;;;;;;;;;;;;;;;9.69;63.20;100409.72;5061093;28;20367;-81
2022/04/23 02:05:12;;;;;;;;;;;;;;;9.67;63.26;100403.69;5045063;28;19917;-80
2022/04/23 02:07:38;;;;;;;;;;;;;;;9.66;63.34;100402.84;5062824;28;19912;-81
2022/04/23 02:10:07;;;;;;;;;;;;;;;9.66;63.89;100405.44;5069397;28;19916;-81
2022/04/23 02:12:33;;;;;;;;;;;;;;;9.64;63.84;100408.97;5064876;28;19916;-80
2022/04/23 02:14:58;;;;;;;;;;;;;;;9.62;64.54;100406.44;5044608;28;20275;-80
2022/04/23 02:17:32;;;;;;;;;;;;;;;9.61;64.54;100414.25;5065679;28;19974;-81
2022/04/23 02:20:00;;;;;;;;;;;;;;;9.59;63.89;100406.53;5062051;28;19917;-80
2022/04/23 02:22:26;;;;;;;;;;;;;;;9.56;63.89;100412.63;5067618;28;20008;-80
2022/04/23 02:24:51;;;;;;;;;;;;;;;9.55;64.22;100405.78;5063003;28;20418;-80
2022/04/23 02:27:16;;;;;;;;;;;;;;;9.54;64.77;100406.66;5060399;28;19931;-80
2022/04/23 02:29:42;;;;;;;;;;;;;;;9.55;64.75;100415.28;5062772;28;20426;-81
2022/04/23 02:32:07;;;;;;;;;;;;;;;9.52;64.11;100415.38;5068520;28;19916;-80
2022/04/23 02:34:32;;;;;;;;;;;;;;;9.50;64.40;100411.97;5061509;28;19957;-80
2022/04/23 02:36:58;;;;;;;;;;;;;;;9.50;64.51;100411.97;5061646;28;19964;-80
2022/04/23 02:39:23;;;;;;;;;;;;;;;9.47;64.83;100407.72;5061633;28;19935;-80
2022/04/23 02:41:48;;;;;;;;;;;;;;;9.46;64.28;100407.78;5065787;28;19920;-80
2022/04/23 02:44:15;;;;;;;;;;;;;;;9.43;65.04;100411.28;5060124;28;19991;-80
2022/04/23 02:46:40;;;;;;;;;;;;;;;9.43;64.93;100419.06;5063137;28;19925;-80
2022/04/23 02:49:05;;;;;;;;;;;;;;;9.42;65.23;100412.19;5064798;28;19970;-80
2022/04/23 02:51:30;;;;;;;;;;;;;;;9.40;64.58;100407.03;5043132;28;20367;-80
2022/04/23 02:53:56;;;;;;;;;;;;;;;9.39;64.88;100410.53;5064245;28;19929;-80
2022/04/23 02:56:21;;;;;;;;;;;;;;;9.38;64.70;100408.81;5061916;28;20345;-81
2022/04/23 02:58:46;;;;;;;;;;;;;;;9.39;65.47;100409.69;5059312;28;19916;-80
2022/04/23 03:01:11;;;;;;;;;;;;;;;9.37;65.26;100401.94;5043375;28;19919;-80
2022/04/23 03:03:38;;;;;;;;;;;;;;;9.36;64.79;100401.97;5062768;28;20726;-80
2022/04/23 03:06:05;;;;;;;;;;;;;;;9.34;65.50;100395.97;5058000;28;19919;-80
2022/04/23 03:08:30;;;;;;;;;;;;;;;9.31;65.01;100390.88;5062716;28;19978;-80
2022/04/23 03:10:56;;;;;;;;;;;;;;;9.29;65.58;100400.44;5064619;28;19916;-80
2022/04/23 03:13:23;;;;;;;;;;;;;;;9.29;65.38;100395.25;5068499;28;19912;-80
2022/04/23 03:15:49;;;;;;;;;;;;;;;9.29;65.31;100397.84;5046254;28;19985;-80
2022/04/23 03:18:14;;;;;;;;;;;;;;;9.27;65.22;100396.13;5063068;28;20371;-80
2022/04/23 03:20:41;;;;;;;;;;;;;;;9.26;65.91;100398.78;5046740;28;20290;-81
2022/04/23 03:23:06;;;;;;;;;;;;;;;9.26;66.18;100402.22;5058950;28;20382;-80
2022/04/23 03:25:32;;;;;;;;;;;;;;;9.26;65.77;100402.22;5063323;28;19921;-80
2022/04/23 03:27:57;;;;;;;;;;;;;;;9.25;65.67;100395.31;5058701;28;20414;-80
2022/04/23 03:30:22;;;;;;;;;;;;;;;9.25;66.33;100390.13;5064985;28;19912;-80
2022/04/23 03:32:48;;;;;;;;;;;;;;;9.23;66.01;100384.13;5063986;28;20003;-80
2022/04/23 03:35:13;;;;;;;;;;;;;;;9.23;65.95;100394.50;5063625;28;20007;-80
2022/04/23 03:37:41;;;;;;;;;;;;;;;9.20;65.85;100386.84;5058523;28;19912;-80
2022/04/23 03:40:09;;;;;;;;;;;;;;;9.20;65.66;100378.19;5061521;28;19916;-81
2022/04/23 03:42:35;;;;;;;;;;;;;;;9.19;65.77;100382.53;5061773;28;19919;-81
2022/04/23 03:45:00;;;;;;;;;;;;;;;9.16;66.97;100385.22;5061494;28;20302;-81
2022/04/23 03:47:26;;;;;;;;;;;;;;;9.14;66.41;100384.41;5061992;28;19972;-81
2022/04/23 03:49:51;;;;;;;;;;;;;;;9.14;66.03;100384.41;5062424;28;19916;-81
2022/04/23 03:52:16;;;;;;;;;;;;;;;9.14;66.28;100379.22;5061762;28;19916;-80
2022/04/23 03:54:41;;;;;;;;;;;;;;;9.15;66.56;100380.91;5066072;28;19938;-80
2022/04/23 03:57:06;;;;;;;;;;;;;;;9.11;66.79;100381.88;5059642;28;19919;-81
2022/04/23 03:59:32;;;;;;;;;;;;;;;9.09;66.77;100376.75;5059224;28;19974;-80
2022/04/23 04:02:02;;;;;;;;;;;;;;;9.08;66.30;100380.22;5064410;28;20375;-80
2022/04/23 04:04:28;;;;;;;;;;;;;;;9.08;66.62;100384.56;5060138;28;20258;-81
2022/04/23 04:06:53;;;;;;;;;;;;;;;9.07;66.56;100369.88;5073078;28;20389;-81
2022/04/23 04:09:18;;;;;;;;;;;;;;;9.07;66.66;100368.16;5073388;28;19974;-81
2022/04/23 04:14:31;;;;;;;;;;;;;;;9.03;66.82;100373.47;5068736;28;20003;-80
2022/04/23 04:17:00;;;;;;;;;;;;;;;9.05;66.85;100374.28;5068915;28;19916;-80
2022/04/23 04:19:26;;;;;;;;;;;;;;;9.04;67.60;100372.56;5067062;28;19969;-81
2022/04/23 04:21:51;;;;;;;;;;;;;;;9.02;67.28;100375.19;5066388;28;20370;-80
2022/04/23 04:24:16;;;;;;;;;;;;;;;9.03;67.00;100365.69;5057408;28;19924;-80
2022/04/23 04:26:47;;;;;;;;;;;;;;;9.02;67.44;100363.97;5066241;28;20004;-81
2022/04/23 04:29:12;;;;;;;;;;;;;;;9.03;67.28;100373.47;5063160;28;20050;-80
2022/04/23 04:31:49;;;;;;;;;;;;;;;9.04;67.30;100359.59;5062181;28;20343;-81
2022/04/23 04:34:19;;;;;;;;;;;;;;;9.03;67.29;100360.50;5068395;28;19920;-80
2022/04/23 04:36:45;;;;;;;;;;;;;;;9.04;67.48;100359.59;5064381;28;20278;-81
2022/04/23 04:39:11;;;;;;;;;;;;;;;9.05;67.94;100361.31;5066090;28;19912;-80
2022/04/23 04:41:37;;;;;;;;;;;;;;;9.04;67.52;100362.19;5066528;28;20298;-81
2022/04/23 04:44:02;;;;;;;;;;;;;;;9.05;67.63;100363.91;5055105;28;19917;-80
2022/04/23 04:46:28;;;;;;;;;;;;;;;9.03;67.83;100365.69;5058943;28;21723;-80
2022/04/23 04:48:53;;;;;;;;;;;;;;;9.03;67.82;100371.72;5055870;28;19920;-80
2022/04/23 04:51:18;;;;;;;;;;;;;;;9.03;67.35;100370.88;5067303;28;19913;-80
2022/04/23 04:53:43;;;;;;;;;;;;;;;9.03;67.75;100365.69;5054202;28;20418;-80
2022/04/23 04:56:09;;;;;;;;;;;;;;;9.02;67.84;100366.56;5057273;28;19920;-80
2022/04/23 04:58:34;;;;;;;;;;;;;;;9.04;67.22;100377.75;5061801;28;20319;-81
2022/04/23 05:01:01;;;;;;;;;;;;;;;9.05;67.71;100374.28;5069540;28;19912;-81
2022/04/23 05:03:26;;;;;;;;;;;;;;;9.06;67.79;100373.34;5069516;28;19920;-80
2022/04/23 05:05:51;;;;;;;;;;;;;;;9.07;67.71;100378.53;5062416;28;19958;-81
2022/04/23 05:08:17;;;;;;;;;;;;;;;9.09;67.78;100375.88;5062849;28;20358;-80
2022/04/23 05:10:42;;;;;;;;;;;;;;;9.09;67.60;100373.28;5065392;28;19948;-80
2022/04/23 05:13:07;;;;;;;;;;;;;;;9.12;68.37;100378.38;5063799;28;20279;-81
2022/04/23 05:15:32;;;;;;;;;;;;;;;9.15;68.66;100386.09;5061864;28;19924;-81
2022/04/23 05:17:57;;;;;;;;;;;;;;;9.16;68.41;100382.63;5066499;28;19916;-81
2022/04/23 05:20:23;;;;;;;;;;;;;;;9.19;68.46;100379.94;5067739;28;19955;-81
2022/04/23 05:22:48;;;;;;;;;;;;;;;9.24;68.57;100374.63;5065819;28;19919;-81
2022/04/23 05:25:13;;;;;;;;;;;;;;;9.29;68.00;100379.66;5065217;28;19977;-80
2022/04/23 05:27:38;;;;;;;;;;;;;;;9.34;68.11;100375.22;5065374;28;19928;-80
2022/04/23 05:30:04;;;;;;;;;;;;;;;9.37;68.40;100380.31;5065848;28;19943;-80
2022/04/23 05:32:29;;;;;;;;;;;;;;;9.40;68.55;100375.03;5064298;28;19965;-81
2022/04/23 05:34:54;;;;;;;;;;;;;;;9.44;68.25;100376.63;5066858;28;19970;-81
2022/04/23 05:37:19;;;;;;;;;;;;;;;9.48;68.18;100375.66;5063481;28;19912;-81
2022/04/23 05:39:44;;;;;;;;;;;;;;;9.51;68.19;100378.19;5070422;28;20072;-81
2022/04/23 05:42:09;;;;;;;;;;;;;;;9.58;67.90;100373.66;5067781;28;19939;-81
2022/04/23 05:44:34;;;;;;;;;;;;;;;9.63;67.91;100376.09;5063594;28;19917;-80
2022/04/23 05:47:00;;;;;;;;;;;;;;;9.69;68.18;100381.13;5067083;28;19930;-80
2022/04/23 05:49:27;;;;;;;;;;;;;;;9.72;67.75;100376.69;5063507;28;19924;-80
2022/04/23 05:51:52;;;;;;;;;;;;;;;9.79;68.00;100382.56;5045184;28;19920;-80
2022/04/23 05:54:17;;;;;;;;;;;;;;;9.84;67.96;100380.69;5063752;28;19919;-80
2022/04/23 05:56:42;;;;;;;;;;;;;;;9.90;67.83;100378.81;5064406;28;20381;-79
2022/04/23 05:59:08;;;;;;;;;;;;;;;9.94;68.16;100378.66;5063748;28;19919;-80
2022/04/23 06:01:34;;;;;;;;;;;;;;;9.99;68.10;100374.13;5064920;28;19921;-80
2022/04/23 06:03:59;;;;;;;;;;;;;;;10.05;68.08;100369.66;5062837;28;19936;-80
2022/04/23 06:06:24;;;;;;;;;;;;;;;10.11;68.76;100366.88;5059558;28;19916;-80
2022/04/23 06:08:49;;;;;;;;;;;;;;;10.16;68.16;100371.03;5059097;28;20002;-80
2022/04/23 06:11:15;;;;;;;;;;;;;;;10.22;68.53;100371.75;5060535;28;19920;-80
2022/04/23 06:13:40;;;;;;;;;;;;;;;10.27;67.96;100362.03;5062398;28;19920;-80
2022/04/23 06:16:05;;;;;;;;;;;;;;;10.31;67.88;100369.69;5061236;28;19912;-80
2022/04/23 06:18:30;;;;;;;;;;;;;;;10.37;68.08;100363.44;5061869;28;19924;-80
2022/04/23 06:20:55;;;;;;;;;;;;;;;10.45;67.94;100371.03;5061305;28;20422;-80
2022/04/23 06:23:20;;;;;;;;;;;;;;;10.50;67.74;100357.88;5064958;28;19947;-80
2022/04/23 06:25:46;;;;;;;;;;;;;;;10.52;67.92;100364.72;5061150;28;19936;-80
2022/04/23 06:28:11;;;;;;;;;;;;;;;10.61;67.87;100368.75;5066849;28;19912;-80
2022/04/23 06:30:37;;;;;;;;;;;;;;;10.68;67.85;100364.19;5065470;28;19967;-80
2022/04/23 06:33:02;;;;;;;;;;;;;;;10.71;67.27;100369.28;5066011;28;20015;-80
2022/04/23 06:35:27;;;;;;;;;;;;;;;10.76;67.54;100365.63;5066419;28;19913;-80
2022/04/23 06:37:54;;;;;;;;;;;;;;;10.84;67.60;100367.13;5063541;28;19971;-80
2022/04/23 06:40:19;;;;;;;;;;;;;;;10.87;67.41;100367.03;5063905;28;19912;-80
2022/04/23 06:42:44;;;;;;;;;;;;;;;10.92;67.58;100359.91;5063207;28;20367;-80
2022/04/23 06:45:10;;;;;;;;;;;;;;;10.96;67.88;100366.69;5060669;28;19970;-80
2022/04/23 06:47:35;;;;;;;;;;;;;;;11.02;67.74;100366.50;5058381;28;20385;-80
2022/04/23 06:50:00;;;;;;;;;;;;;;;11.06;67.22;100368.09;5061587;28;19917;-79
2022/04/23 06:52:26;;;;;;;;;;;;;;;11.13;67.17;100370.44;5061719;28;19920;-81
2022/04/23 06:54:54;;;;;;;;;;;;;;;11.20;67.27;100358.94;5061612;28;19919;-81
2022/04/23 06:57:24;;;;;;;;;;;;;;;11.25;67.07;100359.63;5061532;28;20371;-81
2022/04/23 06:59:49;;;;;;;;;;;;;;;11.26;66.83;100369.13;5061344;28;19913;-81
2022/04/23 07:02:14;;;;;;;;;;;;;;;11.30;66.80;100360.28;5062517;28;19927;-81
2022/04/23 07:04:40;;;;;;;;;;;;;;;11.34;66.63;100356.66;5061589;28;20010;-81
2022/04/23 07:07:05;;;;;;;;;;;;;;;11.38;66.53;100357.38;5063189;28;19950;-81
2022/04/23 07:09:31;;;;;;;;;;;;;;;11.44;66.52;100353.72;5066517;28;20371;-81
2022/04/23 07:11:57;;;;;;;;;;;;;;;11.47;66.36;100351.84;5065906;28;19916;-81
2022/04/23 07:14:23;;;;;;;;;;;;;;;11.52;66.14;100346.47;5068560;28;19966;-81
2022/04/23 07:16:48;;;;;;;;;;;;;;;11.57;66.10;100354.97;5063405;28;19920;-81
2022/04/23 07:19:14;;;;;;;;;;;;;;;11.64;66.19;100347.75;5068506;28;20378;-81
2022/04/23 07:21:39;;;;;;;;;;;;;;;11.72;65.85;100350.06;5066563;28;19935;-81
2022/04/23 07:24:05;;;;;;;;;;;;;;;11.78;65.75;100350.69;5067021;28;19924;-81
2022/04/23 07:26:31;;;;;;;;;;;;;;;11.84;65.84;100349.59;5065303;28;20377;-81
2022/04/23 07:28:57;;;;;;;;;;;;;;;11.88;65.64;100348.56;5060079;28;19954;-81
2022/04/23 07:31:23;;;;;;;;;;;;;;;11.95;65.66;100347.44;5061633;28;20008;-81
2022/04/23 07:39:15;;;;;;;;;;;;;;;12.10;64.93;100339.94;5066791;28;20331;-80
2022/04/23 07:41:41;;;;;;;;;;;;;;;12.19;64.73;100344.75;5072185;28;19981;-80
2022/04/23 07:44:06;;;;;;;;;;;;;;;12.24;64.52;100341.97;5074054;28;19921;-81
2022/04/23 07:46:31;;;;;;;;;;;;;;;12.28;64.33;100344.41;5072525;28;19919;-80
2022/04/23 07:48:58;;;;;;;;;;;;;;;12.34;64.00;100343.31;5073264;28;19916;-80
2022/04/23 07:51:26;;;;;;;;;;;;;;;12.38;64.09;100344.00;5051415;28;19916;-81
2022/04/23 07:53:52;;;;;;;;;;;;;;;12.44;64.20;100341.16;5075892;28;19999;-80
2022/04/23 07:56:17;;;;;;;;;;;;;;;12.50;64.16;100334.84;5074370;28;20019;-81
2022/04/23 07:58:42;;;;;;;;;;;;;;;12.59;63.71;100337.91;5074543;28;19920;-81
2022/04/23 08:01:07;;;;;;;;;;;;;;;12.63;63.86;100328.19;5072726;28;19924;-82
2022/04/23 08:03:33;;;;;;;;;;;;;;;12.69;63.32;100334.88;5063831;28;19923;-82
2022/04/23 08:05:59;;;;;;;;;;;;;;;12.71;63.48;100331.31;5066770;28;19955;-82
2022/04/23 08:08:25;;;;;;;;;;;;;;;12.75;63.04;100329.41;5065028;28;19970;-83
2022/04/23 08:10:50;;;;;;;;;;;;;;;12.76;62.87;100325.91;5063768;28;19920;-82
2022/04/23 08:13:15;;;;;;;;;;;;;;;12.79;62.85;100319.69;5043863;28;19923;-82
2022/04/23 08:15:40;;;;;;;;;;;;;;;12.85;62.71;100325.47;5045932;28;20047;-82
2022/04/23 08:18:06;;;;;;;;;;;;;;;12.94;62.19;100310.34;5058838;28;19924;-82
2022/04/23 08:20:31;;;;;;;;;;;;;;;12.98;61.98;100317.13;5065426;28;20394;-81
2022/04/23 08:22:56;;;;;;;;;;;;;;;12.99;62.05;100309.22;5049472;28;19975;-82
2022/04/23 08:25:22;;;;;;;;;;;;;;;13.06;61.81;100313.22;5065589;28;20256;-82
2022/04/23 08:27:51;;;;;;;;;;;;;;;13.13;61.80;100311.22;5066787;28;20007;-82
2022/04/23 08:30:35;;;;;;;;;;;;;;;13.19;61.75;100307.47;5066353;28;19921;-83
2022/04/23 08:33:01;;;;;;;;;;;;;;;13.27;61.40;100318.41;5063763;28;19994;-82
2022/04/23 08:35:27;;;;;;;;;;;;;;;13.34;61.57;100309.41;5063538;28;20082;-82
2022/04/23 08:37:52;;;;;;;;;;;;;;;13.42;61.42;100306.47;5045172;28;20011;-82
2022/04/23 08:40:18;;;;;;;;;;;;;;;13.49;61.08;100304.41;5065253;28;20260;-82
2022/04/23 08:42:43;;;;;;;;;;;;;;;13.57;60.55;100307.53;5063703;28;20274;-82
2022/04/23 08:45:11;;;;;;;;;;;;;;;13.52;60.79;100306.88;5063794;28;19924;-82
2022/04/23 08:47:36;;;;;;;;;;;;;;;13.54;60.55;100312.88;5065724;28;19923;-82
2022/04/23 08:50:04;;;;;;;;;;;;;;;13.54;60.66;100314.63;5067075;28;19916;-81
2022/04/23 08:52:32;;;;;;;;;;;;;;;13.59;60.66;100313.50;5066097;28;19924;-81
2022/04/23 08:55:02;;;;;;;;;;;;;;;13.73;60.44;100305.00;5065230;28;20330;-81
2022/04/23 08:57:28;;;;;;;;;;;;;;;13.79;60.33;100315.19;5066608;28;19920;-81
2022/04/23 08:59:56;;;;;;;;;;;;;;;13.91;60.14;100323.34;5066644;28;19916;-81
2022/04/23 09:02:22;;;;;;;;;;;;;;;13.96;59.61;100316.13;5045281;28;19939;-82
2022/04/23 09:04:48;;;;;;;;;;;;;;;13.94;59.33;100317.97;5065095;28;20057;-82
2022/04/23 09:07:20;;;;;;;;;;;;;;;13.89;59.32;100312.97;5065760;28;19943;-82
2022/04/23 09:09:52;;;;;;;;;;;;;;;13.93;59.54;100311.06;5064796;28;20023;-81
2022/04/23 09:12:18;;;;;;;;;;;;;;;14.02;59.51;100315.81;5066197;28;19920;-81
2022/04/23 09:14:46;;;;;;;;;;;;;;;14.11;58.90;100315.38;5064960;28;19924;-82
2022/04/23 09:25:35;;;;;;;;;;;;;;;14.49;58.36;100313.56;5063756;28;19931;-81
2022/04/23 09:28:13;;;;;;;;;;;;;;;14.50;57.80;100312.63;5055364;28;19959;-81
2022/04/23 09:30:38;;;;;;;;;;;;;;;14.45;57.57;100315.47;5062146;28;19959;-82
2022/04/23 09:33:03;;;;;;;;;;;;;;;14.38;57.47;100317.53;5063992;28;19984;-82
2022/04/23 09:35:28;;;;;;;;;;;;;;;14.40;58.09;100315.69;5063427;28;19920;-81
2022/04/23 09:38:12;;;;;;;;;;;;;;;14.44;57.92;100308.53;5060641;28;19923;-81
2022/04/23 09:40:37;;;;;;;;;;;;;;;14.52;58.01;100310.75;5061785;28;20004;-81
2022/04/23 09:43:04;;;;;;;;;;;;;;;14.65;58.02;100318.84;5060016;28;20347;-80
2022/04/23 09:45:30;;;;;;;;;;;;;;;14.77;57.77;100318.25;5063511;28;20409;-81
2022/04/23 09:48:14;;;;;;;;;;;;;;;14.82;57.47;100321.47;5060358;28;20379;-81
2022/04/23 09:50:40;;;;;;;;;;;;;;;14.85;57.45;100320.50;5063136;28;20428;-81
2022/04/23 09:53:12;;;;;;;;;;;;;;;14.92;57.42;100321.00;5062703;28;19920;-81
2022/04/23 09:55:38;;;;;;;;;;;;;;;14.97;56.89;100325.06;5063812;28;19920;-82
2022/04/23 09:58:04;;;;;;;;;;;;;;;15.09;56.92;100320.09;5063854;28;19916;-81
2022/04/23 10:00:30;;;;;;;;;;;;;;;15.14;56.51;100315.47;5060234;28;20343;-82
2022/04/23 10:02:58;;;;;;;;;;;;;;;15.17;56.56;100312.69;5062258;28;19928;-82
2022/04/23 10:05:24;;;;;;;;;;;;;;;15.21;56.39;100305.50;5059494;28;19986;-82
2022/04/23 10:07:50;;;;;;;;;;;;;;;15.21;55.31;100311.56;5062893;28;19923;-82
2022/04/23 10:10:16;;;;;;;;;;;;;;;15.13;56.11;100316.41;5062189;28;19920;-82
2022/04/23 10:12:43;;;;;;;;;;;;;;;15.12;56.29;100307.69;5061674;28;19920;-82
2022/04/23 10:15:08;;;;;;;;;;;;;;;15.14;55.92;100310.22;5059023;28;20465;-82
2022/04/23 10:17:34;;;;;;;;;;;;;;;15.11;56.04;100311.25;5062341;28;20385;-82
2022/04/23 10:20:01;;;;;;;;;;;;;;;15.12;55.98;100312.91;5043217;28;19921;-83
2022/04/23 10:22:39;;;;;;;;;;;;;;;15.11;55.78;100305.16;5045314;28;19927;-82
2022/04/23 10:25:24;;;;;;;;;;;;;;;15.06;55.55;100301.91;5042798;28;19978;-82
2022/04/23 10:27:50;;;;;;;;;;;;;;;15.03;55.28;100295.09;5026089;28;20262;-82
2022/04/23 10:30:15;;;;;;;;;;;;;;;15.05;55.72;100285.38;5045321;28;19924;-82
2022/04/23 10:32:41;;;;;;;;;;;;;;;15.10;55.98;100293.84;5045751;28;19924;-82
2022/04/23 10:35:18;;;;;;;;;;;;;;;15.20;55.56;100295.94;5045942;28;19917;-82
2022/04/23 10:37:44;;;;;;;;;;;;;;;15.25;55.29;100288.69;5043564;28;19920;-82
2022/04/23 10:40:14;;;;;;;;;;;;;;;15.28;55.31;100292.00;5040856;28;20255;-82
2022/04/23 10:42:59;;;;;;;;;;;;;;;15.39;55.18;100288.78;5043658;28;20407;-82
2022/04/23 10:45:31;;;;;;;;;;;;;;;15.50;54.98;100276.84;5043051;28;19947;-82
2022/04/23 10:48:16;;;;;;;;;;;;;;;15.62;55.15;100284.88;5044319;28;19921;-81
2022/04/23 10:50:57;;;;;;;;;;;;;;;15.77;54.71;100288.44;5043735;28;20299;-82
2022/04/23 10:53:26;;;;;;;;;;;;;;;15.88;55.04;100292.25;5040074;28;20022;-82
2022/04/23 10:56:07;;;;;;;;;;;;;;;16.00;53.69;100285.47;5042816;28;19939;-81
2022/04/23 10:58:33;;;;;;;;;;;;;;;16.00;53.91;100282.84;5040498;28;20337;-82
2022/04/23 11:01:18;;;;;;;;;;;;;;;16.01;53.55;100284.53;5044697;28;19916;-81
2022/04/23 11:03:43;;;;;;;;;;;;;;;16.03;53.69;100288.75;5043367;28;19924;-82
2022/04/23 11:12:27;;;;;;;;;;;;;;;16.26;53.91;100272.59;4964315;28;19922;-82
2022/04/23 11:14:53;;;;;;;;;;;;;;;16.33;52.85;100279.16;5021273;28;19916;-81
2022/04/23 11:17:21;;;;;;;;;;;;;;;16.29;53.28;100272.41;5047454;28;19967;-81
2022/04/23 11:19:53;;;;;;;;;;;;;;;16.22;53.25;100270.16;5026499;28;19924;-81
2022/04/23 11:22:22;;;;;;;;;;;;;;;16.13;52.59;100269.84;5042680;28;19920;-82
2022/04/23 11:24:48;;;;;;;;;;;;;;;16.09;53.24;100269.16;5042275;28;20326;-82
2022/04/23 11:27:28;;;;;;;;;;;;;;;16.13;53.59;100270.69;5042081;28;19943;-83
2022/04/23 11:29:53;;;;;;;;;;;;;;;16.17;53.01;100264.34;5044018;28;19971;-83
2022/04/23 11:32:28;;;;;;;;;;;;;;;16.23;53.13;100256.06;5044647;28;19925;-82
2022/04/23 11:34:57;;;;;;;;;;;;;;;16.30;53.14;100261.84;5043677;28;19917;-82
2022/04/23 11:37:29;;;;;;;;;;;;;;;16.37;53.03;100264.94;5046276;28;19923;-82
2022/04/23 11:40:04;;;;;;;;;;;;;;;16.44;52.57;100255.75;5044015;28;20291;-82
2022/04/23 11:42:36;;;;;;;;;;;;;;;16.50;52.83;100258.00;5042876;28;19970;-82
2022/04/23 11:45:02;;;;;;;;;;;;;;;16.61;53.15;100261.75;5042995;28;20338;-82
2022/04/23 11:47:28;;;;;;;;;;;;;;;16.72;52.59;100248.84;5044549;28;19957;-82
2022/04/23 11:49:53;;;;;;;;;;;;;;;16.81;52.41;100248.25;5044010;28;19963;-81
2022/04/23 11:52:18;;;;;;;;;;;;;;;16.86;52.00;100244.50;5042854;28;19916;-81
2022/04/23 11:54:44;;;;;;;;;;;;;;;16.93;52.48;100244.03;5042566;28;19928;-82
2022/04/23 11:57:10;;;;;;;;;;;;;;;17.03;51.83;100246.09;5041171;28;20316;-81
2022/04/23 11:59:40;;;;;;;;;;;;;;;17.09;51.58;100241.31;5042814;28;19917;-82
2022/04/23 12:02:07;;;;;;;;;;;;;;;17.13;51.56;100234.94;5043732;28;19921;-81
2022/04/23 12:04:42;;;;;;;;;;;;;;;17.19;51.45;100240.75;5041833;28;19921;-81
2022/04/23 12:07:09;;;;;;;;;;;;;;;17.25;51.58;100230.69;5045241;28;20007;-82
2022/04/23 12:09:54;;;;;;;;;;;;;;;17.28;51.55;100222.59;5027303;28;20012;-82
2022/04/23 12:12:21;;;;;;;;;;;;;;;17.32;50.93;100228.50;5044282;28;19917;-82
2022/04/23 12:14:47;;;;;;;;;;;;;;;17.34;50.29;100224.00;5043523;28;20015;-82
2022/04/23 12:17:22;;;;;;;;;;;;;;;17.36;50.67;100227.38;5044034;28;20003;-82
2022/04/23 12:19:50;;;;;;;;;;;;;;;17.41;50.91;100222.66;5061568;28;19924;-81
2022/04/23 12:22:23;;;;;;;;;;;;;;;17.50;50.54;100223.00;5063938;28;19986;-82
2022/04/23 12:24:48;;;;;;;;;;;;;;;17.57;50.07;100224.31;5062898;28;20062;-81
2022/04/23 12:27:13;;;;;;;;;;;;;;;17.66;50.46;100221.06;5062318;28;20016;-82
2022/04/23 12:40:45;;;;;;;;;;;;;;;18.33;49.02;100201.69;5062670;28;19930;-82
2022/04/23 12:43:20;;;;;;;;;;;;;;;18.44;48.90;100197.50;5062217;28;19920;-82
2022/04/23 12:45:46;;;;;;;;;;;;;;;18.55;48.17;100196.72;5062091;28;20495;-82
2022/04/23 12:48:12;;;;;;;;;;;;;;;18.59;47.68;100193.81;5063094;28;19924;-82
2022/04/23 12:50:37;;;;;;;;;;;;;;;18.62;48.52;100201.47;5061959;28;19920;-82
2022/04/23 12:53:02;;;;;;;;;;;;;;;18.60;47.74;100192.84;5063325;28;19943;-82
2022/04/23 12:55:30;;;;;;;;;;;;;;;18.53;47.17;100188.94;5063760;28;19916;-82
2022/04/23 12:58:01;;;;;;;;;;;;;;;18.52;47.63;100189.06;5043847;28;19994;-82
2022/04/23 13:00:27;;;;;;;;;;;;;;;18.50;46.31;100192.66;5061752;28;19916;-81
2022/04/23 13:02:56;;;;;;;;;;;;;;;18.50;47.14;100186.53;5061994;28;20466;-82
2022/04/23 13:05:22;;;;;;;;;;;;;;;18.53;47.58;100181.03;5062386;28;19916;-82
2022/04/23 13:10:31;;;;;;;;;;;;;;;18.56;46.81;100177.34;5061415;28;19943;-81
2022/04/23 13:12:56;;;;;;;;;;;;;;;18.55;47.55;100180.94;5064077;28;20288;-81
2022/04/23 13:15:22;;;;;;;;;;;;;;;18.61;47.18;100168.19;5063212;28;19975;-82